Liguria — IRKJ — position and weather

sailwx.info

Track history (hours):
 
Tides and Currents Weather Stations Pressure Air Temp Water Temp Dewpoint Dewpoint Depression Visibility Wind Speed Wind Dir Waves Ship Positions

Liguria

Last reported at 2016-Jul-29 17:30 UTC. Time now 2016-Jul-30 16:51 UTC.
Position N 44°18' E 008°29'.

Length 30 m; draft 4.5 m.

Type: Tug. MMSI: 247228500.

Date/timePositionNaut miles runAvg speedWind from/ knotsBaromVisibWave heightAir tempDewpointWater temp
2016-Jul-29 17:30N 44°18' E 008°29'0 0.5
2016-Jul-29 16:31N 44°19' E 008°30'0 0.5
2016-Jul-29 15:31N 44°18' E 008°29'0 0.0
2016-Jul-29 14:31N 44°18' E 008°29'0 0.0
2016-Jul-29 13:28N 44°18' E 008°29'0 0.1
2016-Jul-29 11:33N 44°19' E 008°29'1 0.7
2016-Jul-29 10:28N 44°19' E 008°30'0 0.3
2016-Jul-29 09:29N 44°19' E 008°30'4 2.9
2016-Jul-29 08:11N 44°16' E 008°27'0 0.3
2016-Jul-29 07:32N 44°16' E 008°27'0 0.0
2016-Jul-29 06:23N 44°16' E 008°27'0 0.0
2016-Jul-29 05:20N 44°16' E 008°27'1 1.1
2016-Jul-29 04:33N 44°16' E 008°28'2 0.1
2016-Jul-28 11:32N 44°18' E 008°29'1 0.8
2016-Jul-28 10:32N 44°19' E 008°30'1 0.7
2016-Jul-28 09:27N 44°18' E 008°29'1 0.7
2016-Jul-28 08:17N 44°19' E 008°30'1 0.7
2016-Jul-28 07:07N 44°18' E 008°29'0 0.0
2016-Jul-28 06:25N 44°18' E 008°29'0 0.0
2016-Jul-28 05:25N 44°18' E 008°29'0 0.0
2016-Jul-28 04:25N 44°18' E 008°29'0 0.0
2016-Jul-27 12:31N 44°18' E 008°29'0 0.0
2016-Jul-27 11:24N 44°18' E 008°29'1 0.9
2016-Jul-27 10:32N 44°19' E 008°30'1 0.7
2016-Jul-27 09:30N 44°18' E 008°29'0 0.0
2016-Jul-27 08:30N 44°18' E 008°29'0 0.0
2016-Jul-27 07:30N 44°18' E 008°29'0 0.0
2016-Jul-27 06:30N 44°18' E 008°29'0 0.0
2016-Jul-27 05:30N 44°18' E 008°29'1 0.8
2016-Jul-27 04:30N 44°19' E 008°30'1 0.0
2016-Jul-26 11:27N 44°18' E 008°29'0 0.0
2016-Jul-26 10:27N 44°18' E 008°29'0 0.0
2016-Jul-26 08:27N 44°18' E 008°29'0 0.0
2016-Jul-26 07:27N 44°18' E 008°29'2 2.2
2016-Jul-26 06:26N 44°17' E 008°28'1 1.0
2016-Jul-26 05:33N 44°16' E 008°28'3 2.6
2016-Jul-26 04:30N 44°18' E 008°29'0 0.0
2016-Jul-26 03:24N 44°18' E 008°29'0 0.0
2016-Jul-26 02:30N 44°18' E 008°29'0 0.0
2016-Jul-26 01:33N 44°18' E 008°29'0 0.0
2016-Jul-26 00:30N 44°18' E 008°29'0 0.0
2016-Jul-25 23:30N 44°18' E 008°29'0 0.0
2016-Jul-25 22:30N 44°18' E 008°29'0 0.0
2016-Jul-25 21:30N 44°18' E 008°29'0 0.0
2016-Jul-25 12:33N 44°18' E 008°29'0 0.0
2016-Jul-25 11:33N 44°18' E 008°29'0 0.0
2016-Jul-25 10:27N 44°18' E 008°29'0 0.0
2016-Jul-25 09:33N 44°18' E 008°29'0 0.0
2016-Jul-25 08:27N 44°18' E 008°29'0 0.0
2016-Jul-25 07:30N 44°18' E 008°29'0 0.0
2016-Jul-25 06:30N 44°18' E 008°29'0 0.0
2016-Jul-25 04:33N 44°18' E 008°29'0 0.0
2016-Jul-25 03:24N 44°18' E 008°29'0 0.0
2016-Jul-24 14:31N 44°18' E 008°29'0 0.0
2016-Jul-24 13:31N 44°18' E 008°29'0 0.0
2016-Jul-24 11:33N 44°18' E 008°29'0 0.1
2016-Jul-24 07:31N 44°19' E 008°29'0 0.1
2016-Jul-24 06:31N 44°19' E 008°29'0 0.2
2016-Jul-24 05:25N 44°18' E 008°29'0 0.2
2016-Jul-24 04:31N 44°18' E 008°29'0 0.4
2016-Jul-24 03:31N 44°19' E 008°29'0 0.5
2016-Jul-24 02:31N 44°18' E 008°29'0 0.2
2016-Jul-24 01:31N 44°18' E 008°29'0 0.5
2016-Jul-24 00:31N 44°19' E 008°29'1 0.5
2016-Jul-23 23:31N 44°18' E 008°29'0 0.3
2016-Jul-23 22:31N 44°19' E 008°29'0 0.2
2016-Jul-23 21:31N 44°19' E 008°29'0 0.2
2016-Jul-23 20:25N 44°19' E 008°29'0 0.2
2016-Jul-23 19:31N 44°18' E 008°29'0 0.3
2016-Jul-23 18:31N 44°19' E 008°29'0 0.2
2016-Jul-23 17:31N 44°18' E 008°29'0 0.2
2016-Jul-23 16:33N 44°18' E 008°29'0 0.4
2016-Jul-23 15:33N 44°18' E 008°30'3 2.3
2016-Jul-23 14:28N 44°17' E 008°27'0 0.2
2016-Jul-23 13:31N 44°16' E 008°27'3 2.8
2016-Jul-23 12:33N 44°19' E 008°29'0 0.2
2016-Jul-23 11:33N 44°18' E 008°29'0 0.2
2016-Jul-23 10:33N 44°18' E 008°29'1 0.6
2016-Jul-23 09:33N 44°19' E 008°29'0 0.5
2016-Jul-23 08:33N 44°18' E 008°29'0 0.3
2016-Jul-23 07:33N 44°19' E 008°29'0 0.1
2016-Jul-23 06:33N 44°19' E 008°29'0 0.1
2016-Jul-23 04:33N 44°18' E 008°29'0 0.0
2016-Jul-22 18:31N 44°18' E 008°29'3 3.2
2016-Jul-22 17:32N 44°16' E 008°27'4 3.6
2016-Jul-22 16:33N 44°19' E 008°30'2 2.4
2016-Jul-22 15:33N 44°17' E 008°28'1 1.2
2016-Jul-22 14:29N 44°16' E 008°27'0 0.0
2016-Jul-22 13:29N 44°16' E 008°27'0 0.0
2016-Jul-22 12:29N 44°16' E 008°27'0 0.0
2016-Jul-22 11:29N 44°16' E 008°27'0 0.0
2016-Jul-22 10:29N 44°16' E 008°27'0 0.0
2016-Jul-22 09:29N 44°16' E 008°27'0 0.0
2016-Jul-22 08:29N 44°16' E 008°27'0 0.1
2016-Jul-22 07:33N 44°16' E 008°27'1 0.4
2016-Jul-22 05:33N 44°16' E 008°28'2 1.8
2016-Jul-22 04:33N 44°17' E 008°28'2 0.1
2016-Jul-21 10:19N 44°18' E 008°29'0 0.5
2016-Jul-21 09:33N 44°19' E 008°30'0 0.3
2016-Jul-21 08:30N 44°18' E 008°29'0 0.0
2016-Jul-21 07:33N 44°18' E 008°29'0 0.0
2016-Jul-21 06:33N 44°18' E 008°29'0 0.0
2016-Jul-21 05:33N 44°18' E 008°29'0 0.0
2016-Jul-21 04:27N 44°18' E 008°29'0 0.0
2016-Jul-21 03:33N 44°18' E 008°29'0 0.0
2016-Jul-21 02:33N 44°18' E 008°29'0 0.0
2016-Jul-21 01:30N 44°18' E 008°29'0 0.0
2016-Jul-21 00:33N 44°18' E 008°29'0 0.0
2016-Jul-20 23:33N 44°18' E 008°29'0 0.0
2016-Jul-20 22:33N 44°18' E 008°29'0 0.0
2016-Jul-20 21:33N 44°18' E 008°29'0 0.0
2016-Jul-20 20:33N 44°18' E 008°29'0 0.0
2016-Jul-20 19:33N 44°18' E 008°29'0 0.0
2016-Jul-20 18:33N 44°18' E 008°29'0 0.0
2016-Jul-20 17:33N 44°18' E 008°29'0 0.0
2016-Jul-20 16:33N 44°18' E 008°29'0 0.0
2016-Jul-20 15:30N 44°18' E 008°29'0 0.0
2016-Jul-20 14:21N 44°18' E 008°29'0 0.0
2016-Jul-20 13:33N 44°18' E 008°29'0 0.0
2016-Jul-20 12:30N 44°18' E 008°29'0 0.0
2016-Jul-20 11:30N 44°18' E 008°29'0 0.0
2016-Jul-20 10:27N 44°18' E 008°29'0 0.0
2016-Jul-20 09:30N 44°18' E 008°29'0 0.0
2016-Jul-20 08:30N 44°18' E 008°29'0 0.0
2016-Jul-20 07:27N 44°18' E 008°29'0 0.0
2016-Jul-20 06:33N 44°18' E 008°29'0 0.0
2016-Jul-20 05:33N 44°18' E 008°29'0 0.0
2016-Jul-20 04:30N 44°18' E 008°29'0 0.0
2016-Jul-20 03:33N 44°18' E 008°29'  
Track history (hours):
 
Tides and Currents Weather Stations Pressure Air Temp Water Temp Dewpoint Dewpoint Depression Visibility Wind Speed Wind Dir Waves Ship Positions

Liguria

Last reported at 2016-Jul-29 17:30 UTC. Time now 2016-Jul-30 16:51 UTC.
Position N 44°18' E 008°29'.

Length 30 m; draft 4.5 m.

Type: Tug. MMSI: 247228500.

Date/timePositionNaut miles runAvg speedWind from/ knotsBaromVisibWave heightAir tempDewpointWater temp
2016-Jul-29 17:30N 44°18' E 008°29'0 0.5
2016-Jul-29 16:31N 44°19' E 008°30'0 0.5
2016-Jul-29 15:31N 44°18' E 008°29'0 0.0
2016-Jul-29 14:31N 44°18' E 008°29'0 0.0
2016-Jul-29 13:28N 44°18' E 008°29'0 0.1
2016-Jul-29 11:33N 44°19' E 008°29'1 0.7
2016-Jul-29 10:28N 44°19' E 008°30'0 0.3
2016-Jul-29 09:29N 44°19' E 008°30'4 2.9
2016-Jul-29 08:11N 44°16' E 008°27'0 0.3
2016-Jul-29 07:32N 44°16' E 008°27'0 0.0
2016-Jul-29 06:23N 44°16' E 008°27'0 0.0
2016-Jul-29 05:20N 44°16' E 008°27'1 1.1
2016-Jul-29 04:33N 44°16' E 008°28'2 0.1
2016-Jul-28 11:32N 44°18' E 008°29'1 0.8
2016-Jul-28 10:32N 44°19' E 008°30'1 0.7
2016-Jul-28 09:27N 44°18' E 008°29'1 0.7
2016-Jul-28 08:17N 44°19' E 008°30'1 0.7
2016-Jul-28 07:07N 44°18' E 008°29'0 0.0
2016-Jul-28 06:25N 44°18' E 008°29'0 0.0
2016-Jul-28 05:25N 44°18' E 008°29'0 0.0
2016-Jul-28 04:25N 44°18' E 008°29'0 0.0
2016-Jul-27 12:31N 44°18' E 008°29'0 0.0
2016-Jul-27 11:24N 44°18' E 008°29'1 0.9
2016-Jul-27 10:32N 44°19' E 008°30'1 0.7
2016-Jul-27 09:30N 44°18' E 008°29'0 0.0
2016-Jul-27 08:30N 44°18' E 008°29'0 0.0
2016-Jul-27 07:30N 44°18' E 008°29'0 0.0
2016-Jul-27 06:30N 44°18' E 008°29'0 0.0
2016-Jul-27 05:30N 44°18' E 008°29'1 0.8
2016-Jul-27 04:30N 44°19' E 008°30'1 0.0
2016-Jul-26 11:27N 44°18' E 008°29'0 0.0
2016-Jul-26 10:27N 44°18' E 008°29'0 0.0
2016-Jul-26 08:27N 44°18' E 008°29'0 0.0
2016-Jul-26 07:27N 44°18' E 008°29'2 2.2
2016-Jul-26 06:26N 44°17' E 008°28'1 1.0
2016-Jul-26 05:33N 44°16' E 008°28'3 2.6
2016-Jul-26 04:30N 44°18' E 008°29'0 0.0
2016-Jul-26 03:24N 44°18' E 008°29'0 0.0
2016-Jul-26 02:30N 44°18' E 008°29'0 0.0
2016-Jul-26 01:33N 44°18' E 008°29'0 0.0
2016-Jul-26 00:30N 44°18' E 008°29'0 0.0
2016-Jul-25 23:30N 44°18' E 008°29'0 0.0
2016-Jul-25 22:30N 44°18' E 008°29'0 0.0
2016-Jul-25 21:30N 44°18' E 008°29'0 0.0
2016-Jul-25 12:33N 44°18' E 008°29'0 0.0
2016-Jul-25 11:33N 44°18' E 008°29'0 0.0
2016-Jul-25 10:27N 44°18' E 008°29'0 0.0
2016-Jul-25 09:33N 44°18' E 008°29'0 0.0
2016-Jul-25 08:27N 44°18' E 008°29'0 0.0
2016-Jul-25 07:30N 44°18' E 008°29'0 0.0
2016-Jul-25 06:30N 44°18' E 008°29'0 0.0
2016-Jul-25 04:33N 44°18' E 008°29'0 0.0
2016-Jul-25 03:24N 44°18' E 008°29'0 0.0
2016-Jul-24 14:31N 44°18' E 008°29'0 0.0
2016-Jul-24 13:31N 44°18' E 008°29'0 0.0
2016-Jul-24 11:33N 44°18' E 008°29'0 0.1
2016-Jul-24 07:31N 44°19' E 008°29'0 0.1
2016-Jul-24 06:31N 44°19' E 008°29'0 0.2
2016-Jul-24 05:25N 44°18' E 008°29'0 0.2
2016-Jul-24 04:31N 44°18' E 008°29'0 0.4
2016-Jul-24 03:31N 44°19' E 008°29'0 0.5
2016-Jul-24 02:31N 44°18' E 008°29'0 0.2
2016-Jul-24 01:31N 44°18' E 008°29'0 0.5
2016-Jul-24 00:31N 44°19' E 008°29'1 0.5
2016-Jul-23 23:31N 44°18' E 008°29'0 0.3
2016-Jul-23 22:31N 44°19' E 008°29'0 0.2
2016-Jul-23 21:31N 44°19' E 008°29'0 0.2
2016-Jul-23 20:25N 44°19' E 008°29'0 0.2
2016-Jul-23 19:31N 44°18' E 008°29'0 0.3
2016-Jul-23 18:31N 44°19' E 008°29'0 0.2
2016-Jul-23 17:31N 44°18' E 008°29'0 0.2
2016-Jul-23 16:33N 44°18' E 008°29'0 0.4
2016-Jul-23 15:33N 44°18' E 008°30'3 2.3
2016-Jul-23 14:28N 44°17' E 008°27'0 0.2
2016-Jul-23 13:31N 44°16' E 008°27'3 2.8
2016-Jul-23 12:33N 44°19' E 008°29'0 0.2
2016-Jul-23 11:33N 44°18' E 008°29'0 0.2
2016-Jul-23 10:33N 44°18' E 008°29'1 0.6
2016-Jul-23 09:33N 44°19' E 008°29'0 0.5
2016-Jul-23 08:33N 44°18' E 008°29'0 0.3
2016-Jul-23 07:33N 44°19' E 008°29'0 0.1
2016-Jul-23 06:33N 44°19' E 008°29'0 0.1
2016-Jul-23 04:33N 44°18' E 008°29'0 0.0
2016-Jul-22 18:31N 44°18' E 008°29'3 3.2
2016-Jul-22 17:32N 44°16' E 008°27'4 3.6
2016-Jul-22 16:33N 44°19' E 008°30'2 2.4
2016-Jul-22 15:33N 44°17' E 008°28'1 1.2
2016-Jul-22 14:29N 44°16' E 008°27'0 0.0
2016-Jul-22 13:29N 44°16' E 008°27'0 0.0
2016-Jul-22 12:29N 44°16' E 008°27'0 0.0
2016-Jul-22 11:29N 44°16' E 008°27'0 0.0
2016-Jul-22 10:29N 44°16' E 008°27'0 0.0
2016-Jul-22 09:29N 44°16' E 008°27'0 0.0
2016-Jul-22 08:29N 44°16' E 008°27'0 0.1
2016-Jul-22 07:33N 44°16' E 008°27'1 0.4
2016-Jul-22 05:33N 44°16' E 008°28'2 1.8
2016-Jul-22 04:33N 44°17' E 008°28'2 0.1
2016-Jul-21 10:19N 44°18' E 008°29'0 0.5
2016-Jul-21 09:33N 44°19' E 008°30'0 0.3
2016-Jul-21 08:30N 44°18' E 008°29'0 0.0
2016-Jul-21 07:33N 44°18' E 008°29'0 0.0
2016-Jul-21 06:33N 44°18' E 008°29'0 0.0
2016-Jul-21 05:33N 44°18' E 008°29'0 0.0
2016-Jul-21 04:27N 44°18' E 008°29'0 0.0
2016-Jul-21 03:33N 44°18' E 008°29'0 0.0
2016-Jul-21 02:33N 44°18' E 008°29'0 0.0
2016-Jul-21 01:30N 44°18' E 008°29'0 0.0
2016-Jul-21 00:33N 44°18' E 008°29'0 0.0
2016-Jul-20 23:33N 44°18' E 008°29'0 0.0
2016-Jul-20 22:33N 44°18' E 008°29'0 0.0
2016-Jul-20 21:33N 44°18' E 008°29'0 0.0
2016-Jul-20 20:33N 44°18' E 008°29'0 0.0
2016-Jul-20 19:33N 44°18' E 008°29'0 0.0
2016-Jul-20 18:33N 44°18' E 008°29'0 0.0
2016-Jul-20 17:33N 44°18' E 008°29'0 0.0
2016-Jul-20 16:33N 44°18' E 008°29'0 0.0
2016-Jul-20 15:30N 44°18' E 008°29'0 0.0
2016-Jul-20 14:21N 44°18' E 008°29'0 0.0
2016-Jul-20 13:33N 44°18' E 008°29'0 0.0
2016-Jul-20 12:30N 44°18' E 008°29'0 0.0
2016-Jul-20 11:30N 44°18' E 008°29'0 0.0
2016-Jul-20 10:27N 44°18' E 008°29'0 0.0
2016-Jul-20 09:30N 44°18' E 008°29'0 0.0
2016-Jul-20 08:30N 44°18' E 008°29'0 0.0
2016-Jul-20 07:27N 44°18' E 008°29'0 0.0
2016-Jul-20 06:33N 44°18' E 008°29'0 0.0
2016-Jul-20 05:33N 44°18' E 008°29'0 0.0
2016-Jul-20 04:30N 44°18' E 008°29'0 0.0
2016-Jul-20 03:33N 44°18' E 008°29'  

Dump ship's entire track history